createdAt,value
2023-03-04T00:00:47.645Z,9.11
2023-03-04T00:02:50.796Z,9.11
2023-03-04T00:04:52.465Z,9.07
2023-03-04T00:06:55.306Z,9.09
2023-03-04T00:08:57.058Z,9.01
2023-03-04T00:10:58.818Z,9.10
2023-03-04T00:13:00.392Z,9.01
2023-03-04T00:15:02.071Z,8.95
2023-03-04T00:17:03.737Z,8.94
2023-03-04T00:19:06.618Z,8.94
2023-03-04T00:21:08.314Z,8.98
2023-03-04T00:23:10.022Z,8.97
2023-03-04T00:25:11.569Z,8.96
2023-03-04T00:27:13.146Z,8.98
2023-03-04T00:29:14.782Z,9.03
2023-03-04T00:31:16.531Z,9.05
2023-03-04T00:33:18.329Z,9.00
2023-03-04T00:35:21.399Z,9.00
2023-03-04T00:37:23.091Z,8.92
2023-03-04T00:39:24.847Z,8.83
2023-03-04T00:41:26.441Z,8.43
2023-03-04T00:43:28.049Z,8.41
2023-03-04T00:45:29.815Z,8.42
2023-03-04T00:47:31.399Z,8.43
2023-03-04T00:49:33.131Z,8.37
2023-03-04T00:51:36.303Z,8.30
2023-03-04T00:53:37.877Z,8.29
2023-03-04T00:55:39.535Z,8.29
2023-03-04T00:57:41.095Z,8.33
2023-03-04T00:59:42.892Z,8.29
2023-03-04T01:01:46.478Z,8.25
2023-03-04T01:03:48.122Z,8.27
2023-03-04T01:05:49.778Z,8.23
2023-03-04T01:07:52.812Z,8.20
2023-03-04T01:09:54.521Z,8.21
2023-03-04T01:11:56.198Z,8.24
2023-03-04T01:13:57.785Z,8.23
2023-03-04T01:15:59.471Z,8.19
2023-03-04T01:18:01.289Z,8.14
2023-03-04T01:20:04.019Z,8.12
2023-03-04T01:22:05.668Z,8.10
2023-03-04T01:24:09.036Z,8.09
2023-03-04T01:26:10.604Z,8.06
2023-03-04T01:28:12.156Z,8.01
2023-03-04T01:30:13.954Z,7.95
2023-03-04T01:32:15.645Z,7.82
2023-03-04T01:34:17.192Z,7.82
2023-03-04T01:36:18.769Z,7.72
2023-03-04T01:38:20.468Z,7.47
2023-03-04T01:40:23.680Z,7.30
2023-03-04T01:42:27.585Z,7.04
2023-03-04T01:44:29.313Z,6.99
2023-03-04T01:46:32.011Z,7.06
2023-03-04T01:48:37.112Z,7.08
2023-03-04T01:50:38.942Z,7.01
2023-03-04T01:52:41.084Z,6.98
2023-03-04T01:54:42.785Z,6.96
2023-03-04T01:56:47.596Z,6.94
2023-03-04T01:59:07.485Z,6.97
2023-03-04T02:01:10.426Z,6.85
2023-03-04T02:05:17.445Z,6.84
2023-03-04T02:07:19.060Z,6.73
2023-03-04T02:09:21.418Z,6.77
2023-03-04T02:11:23.284Z,6.79
2023-03-04T02:13:26.499Z,6.77
2023-03-04T02:15:29.131Z,6.71
2023-03-04T02:17:35.208Z,6.46
2023-03-04T02:19:47.821Z,6.43
2023-03-04T02:21:49.707Z,6.47
2023-03-04T02:23:59.552Z,6.42
2023-03-04T02:26:20.818Z,6.43
2023-03-04T02:28:22.460Z,6.39
2023-03-04T02:30:25.130Z,6.48
2023-03-04T02:32:26.915Z,6.50
2023-03-04T02:34:31.178Z,6.57
2023-03-04T02:36:34.746Z,6.63
2023-03-04T02:38:36.367Z,6.67
2023-03-04T02:40:41.458Z,6.66
2023-03-04T02:42:45.291Z,6.62
2023-03-04T02:44:47.774Z,6.55
2023-03-04T02:46:50.710Z,6.38
2023-03-04T02:48:52.756Z,6.13
2023-03-04T02:50:55.231Z,6.15
2023-03-04T02:52:56.844Z,6.22
2023-03-04T02:54:58.432Z,6.30
2023-03-04T02:57:02.326Z,6.41
2023-03-04T02:59:05.241Z,6.43
2023-03-04T03:01:06.824Z,6.43
2023-03-04T03:03:09.186Z,6.36
2023-03-04T03:05:12.761Z,6.35
2023-03-04T03:07:14.360Z,6.27
2023-03-04T03:09:16.538Z,6.24
2023-03-04T03:11:18.121Z,6.32
2023-03-04T03:13:19.751Z,6.35
2023-03-04T03:15:22.779Z,6.38
2023-03-04T03:17:24.400Z,6.47
2023-03-04T03:19:25.992Z,6.41
2023-03-04T03:21:27.735Z,6.50
2023-03-04T03:23:29.264Z,6.51
2023-03-04T03:25:30.948Z,6.55
2023-03-04T03:27:32.589Z,6.61
2023-03-04T03:29:34.208Z,6.62
2023-03-04T03:31:37.155Z,6.69
2023-03-04T03:33:38.860Z,6.71
2023-03-04T03:35:40.453Z,6.76
2023-03-04T03:37:41.986Z,6.80
2023-03-04T03:39:43.753Z,6.82
2023-03-04T03:41:45.356Z,6.80
2023-03-04T03:43:46.859Z,6.81
2023-03-04T03:45:48.469Z,6.81
2023-03-04T03:47:51.441Z,6.84
2023-03-04T03:49:53.008Z,6.82
2023-03-04T03:51:54.646Z,6.81
2023-03-04T03:53:56.197Z,6.78
2023-03-04T03:55:57.777Z,6.83
2023-03-04T03:57:59.376Z,6.86
2023-03-04T04:00:01.416Z,6.86
2023-03-04T04:02:03.237Z,6.83
2023-03-04T04:04:06.362Z,6.85
2023-03-04T04:06:08.118Z,6.82
2023-03-04T04:08:12.718Z,6.81
2023-03-04T04:10:14.328Z,6.77
2023-03-04T04:12:16.848Z,6.81
2023-03-04T04:14:18.390Z,6.80
2023-03-04T04:16:19.956Z,6.79
2023-03-04T04:18:21.728Z,6.81
2023-03-04T04:20:26.316Z,6.78
2023-03-04T04:22:28.193Z,6.78
2023-03-04T04:24:30.045Z,6.74
2023-03-04T04:26:31.634Z,6.73
2023-03-04T04:28:33.548Z,6.73
2023-03-04T04:30:35.421Z,6.82
2023-03-04T04:32:37.004Z,6.78
2023-03-04T04:34:38.719Z,6.76
2023-03-04T04:36:41.588Z,6.70
2023-03-04T04:38:43.418Z,6.73
2023-03-04T04:40:44.995Z,6.75
2023-03-04T04:42:46.546Z,6.73
2023-03-04T04:44:48.140Z,6.63
2023-03-04T04:46:49.851Z,6.60
2023-03-04T04:48:51.431Z,6.55
2023-03-04T04:51:02.051Z,6.52
2023-03-04T04:53:05.152Z,6.47
2023-03-04T04:55:07.320Z,6.45
2023-03-04T04:57:08.933Z,6.44
2023-03-04T04:59:10.698Z,6.44
2023-03-04T05:01:12.904Z,6.44
2023-03-04T05:03:16.293Z,6.44
2023-03-04T05:05:19.327Z,6.44
2023-03-04T05:07:21.063Z,6.47
2023-03-04T05:09:24.013Z,6.47
2023-03-04T05:11:25.699Z,6.57
2023-03-04T05:13:27.850Z,6.53
2023-03-04T05:15:29.454Z,6.53
2023-03-04T05:17:31.067Z,6.54
2023-03-04T05:19:32.602Z,6.57
2023-03-04T05:21:34.317Z,6.59
2023-03-04T05:23:38.998Z,6.64
2023-03-04T05:25:41.895Z,6.62
2023-03-04T05:27:43.901Z,6.59
2023-03-04T05:29:45.474Z,6.59
2023-03-04T05:31:47.097Z,6.66
2023-03-04T05:33:48.741Z,6.66
2023-03-04T05:35:50.932Z,6.66
2023-03-04T05:37:52.612Z,6.66
2023-03-04T05:39:54.369Z,6.65
2023-03-04T05:41:57.337Z,6.62
2023-03-04T05:43:58.997Z,6.56
2023-03-04T05:46:00.563Z,6.56
2023-03-04T05:48:02.170Z,6.58
2023-03-04T05:50:03.943Z,6.58
2023-03-04T05:52:05.508Z,6.61
2023-03-04T05:54:07.175Z,6.62
2023-03-04T05:56:09.949Z,6.62
2023-03-04T05:58:12.982Z,6.66
2023-03-04T06:00:16.034Z,6.72
2023-03-04T06:02:17.573Z,6.73
2023-03-04T06:04:19.202Z,6.71
2023-03-04T06:06:20.926Z,6.61
2023-03-04T06:08:22.674Z,6.64
2023-03-04T06:10:24.229Z,6.55
2023-03-04T06:12:26.110Z,6.53
2023-03-04T06:14:29.023Z,6.52
2023-03-04T06:16:30.694Z,6.60
2023-03-04T06:18:32.381Z,6.57
2023-03-04T06:20:33.975Z,6.57
2023-03-04T06:22:35.589Z,6.52
2023-03-04T06:24:37.616Z,6.54
2023-03-04T06:26:39.267Z,6.59
2023-03-04T06:28:40.951Z,6.57
2023-03-04T06:30:43.939Z,6.63
2023-03-04T06:32:45.674Z,6.68
2023-03-04T06:34:47.323Z,6.67
2023-03-04T06:36:48.929Z,6.68
2023-03-04T06:38:50.483Z,6.69
2023-03-04T06:40:52.416Z,6.70
2023-03-04T06:42:54.176Z,6.87
2023-03-04T06:44:55.831Z,6.87
2023-03-04T06:46:58.835Z,6.79
2023-03-04T06:49:00.580Z,6.75
2023-03-04T06:51:05.876Z,6.73
2023-03-04T06:53:07.474Z,6.78
2023-03-04T06:55:09.887Z,6.82
2023-03-04T06:57:11.612Z,6.81
2023-03-04T06:59:13.374Z,6.79
2023-03-04T07:01:17.238Z,6.77
2023-03-04T07:03:20.198Z,6.72
2023-03-04T07:05:21.791Z,6.79
2023-03-04T07:07:23.425Z,6.73
2023-03-04T07:09:25.119Z,6.73
2023-03-04T07:11:26.873Z,6.76
2023-03-04T07:13:28.433Z,6.56
2023-03-04T07:15:30.201Z,6.50
2023-03-04T07:17:31.771Z,6.45
2023-03-04T07:19:34.731Z,6.41
2023-03-04T07:21:36.317Z,6.44
2023-03-04T07:23:37.923Z,6.48
2023-03-04T07:25:39.520Z,6.47
2023-03-04T07:27:41.219Z,6.50
2023-03-04T07:29:42.943Z,6.58
2023-03-04T07:31:44.592Z,6.65
2023-03-04T07:33:46.403Z,6.74
2023-03-04T07:35:49.295Z,6.75
2023-03-04T07:37:51.012Z,6.78
2023-03-04T07:39:52.585Z,6.75
2023-03-04T07:41:54.068Z,6.77
2023-03-04T07:43:56.942Z,6.80
2023-03-04T07:46:00.464Z,6.64
2023-03-04T07:48:02.173Z,6.63
2023-03-04T07:50:04.530Z,6.60
2023-03-04T07:52:07.572Z,6.63
2023-03-04T07:54:09.746Z,6.65
2023-03-04T07:56:13.321Z,6.70
2023-03-04T07:58:14.888Z,6.73
2023-03-04T08:00:17.511Z,6.77
2023-03-04T08:02:19.257Z,6.79
2023-03-04T08:04:20.885Z,6.76
2023-03-04T08:06:23.044Z,6.79
2023-03-04T08:08:26.028Z,6.76
2023-03-04T08:10:27.722Z,6.67
2023-03-04T08:12:29.352Z,6.61
2023-03-04T08:14:30.962Z,6.59
2023-03-04T08:16:32.981Z,6.64
2023-03-04T08:18:34.629Z,6.69
2023-03-04T08:20:36.300Z,6.69
2023-03-04T08:22:39.934Z,6.74
2023-03-04T08:24:42.847Z,6.73
2023-03-04T08:26:46.692Z,6.78
2023-03-04T08:28:48.418Z,6.85
2023-03-04T08:30:53.644Z,6.82
2023-03-04T08:32:55.187Z,6.85
2023-03-04T08:34:56.727Z,6.88
2023-03-04T08:36:58.215Z,6.86
2023-03-04T08:38:59.778Z,6.92
2023-03-04T08:41:03.081Z,6.89
2023-03-04T08:43:04.655Z,6.85
2023-03-04T08:45:07.249Z,6.82
2023-03-04T08:47:08.784Z,6.79
2023-03-04T08:49:11.938Z,6.81
2023-03-04T08:51:14.739Z,6.86
2023-03-04T08:53:17.825Z,6.80
2023-03-04T08:55:19.463Z,6.79
2023-03-04T08:57:22.538Z,6.97
2023-03-04T08:59:24.473Z,6.89
2023-03-04T09:01:26.044Z,6.96
2023-03-04T09:03:27.877Z,6.96
2023-03-04T09:05:29.762Z,6.97
2023-03-04T09:07:31.346Z,6.93
2023-03-04T09:09:33.046Z,7.00
2023-03-04T09:11:35.027Z,6.98
2023-03-04T09:13:38.015Z,7.10
2023-03-04T09:15:44.473Z,7.15
2023-03-04T09:17:46.170Z,7.17
2023-03-04T09:19:47.766Z,7.26
2023-03-04T09:21:49.366Z,7.26
2023-03-04T09:23:50.874Z,7.29
2023-03-04T09:25:52.547Z,7.21
2023-03-04T09:27:54.255Z,7.11
2023-03-04T09:29:57.201Z,7.10
2023-03-04T09:31:58.747Z,7.17
2023-03-04T09:34:00.681Z,7.13
2023-03-04T09:36:02.232Z,7.17
2023-03-04T09:38:03.962Z,7.23
2023-03-04T09:40:07.511Z,7.33
2023-03-04T09:42:15.075Z,7.45
2023-03-04T09:44:23.216Z,7.45
2023-03-04T09:46:32.621Z,7.44
2023-03-04T09:48:40.215Z,7.50
2023-03-04T09:50:51.655Z,7.48
2023-03-04T09:53:04.979Z,7.54
2023-03-04T09:55:20.463Z,7.51
2023-03-04T09:57:28.184Z,7.46
2023-03-04T09:59:35.460Z,7.56
2023-03-04T10:01:45.825Z,7.66
2023-03-04T10:03:51.725Z,7.62
2023-03-04T10:05:56.423Z,7.70
2023-03-04T10:08:00.666Z,7.68
2023-03-04T10:10:04.754Z,7.69
2023-03-04T10:12:11.992Z,7.70
2023-03-04T10:14:31.440Z,7.75
2023-03-04T10:16:39.907Z,7.78
2023-03-04T10:18:50.430Z,7.83
2023-03-04T10:20:56.471Z,7.83
2023-03-04T10:23:05.775Z,7.85
2023-03-04T10:25:19.595Z,7.92
2023-03-04T10:27:21.195Z,7.95
2023-03-04T10:29:24.613Z,8.04
2023-03-04T10:31:32.604Z,8.01
2023-03-04T10:33:36.510Z,8.05
2023-03-04T10:35:41.506Z,8.09
2023-03-04T10:37:45.939Z,8.08
2023-03-04T10:39:49.750Z,8.08
2023-03-04T10:41:59.578Z,8.10
2023-03-04T10:44:03.979Z,8.12
2023-03-04T10:46:05.630Z,8.17
2023-03-04T10:48:19.354Z,8.21
2023-03-04T10:50:26.767Z,8.23
2023-03-04T10:52:32.050Z,8.23
2023-03-04T10:54:40.816Z,8.28
2023-03-04T10:56:52.363Z,8.31
2023-03-04T10:58:53.901Z,8.34
2023-03-04T11:01:05.742Z,8.36
2023-03-04T11:03:23.784Z,8.36
2023-03-04T11:05:26.013Z,8.34
2023-03-04T11:07:27.784Z,8.32
2023-03-04T11:09:31.589Z,8.30
2023-03-04T11:11:41.692Z,8.35
2023-03-04T11:13:50.758Z,8.42
2023-03-04T11:15:56.258Z,8.44
2023-03-04T11:18:03.172Z,8.46
2023-03-04T11:20:14.400Z,8.51
2023-03-04T11:22:18.196Z,8.50
2023-03-04T11:24:28.841Z,8.49
2023-03-04T11:26:36.356Z,8.51
2023-03-04T11:28:45.073Z,8.49
2023-03-04T11:30:50.524Z,8.50
2023-03-04T11:32:55.780Z,8.57
2023-03-04T11:35:01.437Z,8.66
2023-03-04T11:37:08.469Z,8.71
2023-03-04T11:39:20.339Z,8.76
2023-03-04T11:41:30.515Z,8.83
2023-03-04T11:43:36.493Z,8.91
2023-03-04T11:46:02.273Z,8.97
2023-03-04T11:48:13.072Z,9.01
2023-03-04T11:50:29.843Z,9.03
2023-03-04T11:52:51.943Z,9.08
2023-03-04T11:55:06.124Z,9.13
2023-03-04T11:57:12.910Z,9.01
2023-03-04T11:59:29.095Z,9.01
2023-03-04T12:01:42.463Z,8.99
2023-03-04T12:04:00.099Z,9.08
2023-03-04T12:06:10.361Z,9.03
2023-03-04T12:08:28.132Z,9.04
2023-03-04T12:10:38.062Z,9.12
2023-03-04T12:12:54.646Z,9.09
2023-03-04T12:15:07.130Z,9.08
2023-03-04T12:17:34.782Z,9.16
2023-03-04T12:19:50.850Z,9.06
2023-03-04T12:22:19.326Z,9.07
2023-03-04T12:24:57.467Z,9.23
2023-03-04T12:27:09.076Z,9.31
2023-03-04T12:29:20.222Z,9.34
2023-03-04T12:31:34.103Z,9.43
2023-03-04T12:33:48.897Z,9.48
2023-03-04T12:35:56.554Z,9.51
2023-03-04T12:38:19.515Z,9.56
2023-03-04T12:40:34.944Z,9.54
2023-03-04T12:42:46.059Z,9.59
2023-03-04T12:44:58.393Z,9.54
2023-03-04T12:47:17.879Z,9.50
2023-03-04T12:49:37.510Z,9.54
2023-03-04T12:51:49.933Z,9.55
2023-03-04T12:54:01.229Z,9.55
2023-03-04T12:56:10.206Z,9.55
2023-03-04T12:58:16.488Z,9.38
2023-03-04T13:00:30.338Z,9.47
2023-03-04T13:02:52.757Z,9.54
2023-03-04T13:05:03.406Z,9.53
2023-03-04T13:07:16.475Z,9.57
2023-03-04T13:09:24.403Z,9.54
2023-03-04T13:11:54.752Z,9.56
2023-03-04T13:14:02.226Z,9.57
2023-03-04T13:16:06.075Z,9.63
2023-03-04T13:18:34.527Z,9.50
2023-03-04T13:20:39.340Z,9.54
2023-03-04T13:22:53.496Z,9.61
2023-03-04T13:24:57.363Z,9.67
2023-03-04T13:26:59.369Z,9.71
2023-03-04T13:29:32.240Z,9.76
2023-03-04T13:32:01.278Z,9.79
2023-03-04T13:34:04.890Z,9.80
2023-03-04T13:36:26.224Z,9.79
2023-03-04T13:38:33.692Z,9.70
2023-03-04T13:40:36.678Z,9.69
2023-03-04T13:42:40.390Z,9.73
2023-03-04T13:45:00.113Z,9.72
2023-03-04T13:47:09.129Z,9.72
2023-03-04T13:49:22.380Z,9.77
2023-03-04T13:51:29.936Z,9.73
2023-03-04T13:53:43.818Z,9.72
2023-03-04T13:56:12.101Z,9.72
2023-03-04T13:58:20.472Z,9.72
2023-03-04T14:00:22.665Z,9.69
2023-03-04T14:02:25.628Z,9.70
2023-03-04T14:04:32.827Z,9.66
2023-03-04T14:06:34.448Z,9.67
2023-03-04T14:08:36.178Z,9.68
2023-03-04T14:10:37.705Z,9.66
2023-03-04T14:12:44.654Z,9.66
2023-03-04T14:14:50.500Z,9.68
2023-03-04T14:16:56.094Z,9.49
2023-03-04T14:18:59.580Z,9.43
2023-03-04T14:21:02.769Z,9.38
2023-03-04T14:23:22.627Z,9.51
2023-03-04T14:25:26.632Z,9.48
2023-03-04T14:27:29.210Z,9.49
2023-03-04T14:29:31.507Z,9.54
2023-03-04T14:31:35.881Z,9.51
2023-03-04T14:33:40.101Z,9.53
2023-03-04T14:35:47.206Z,9.50
2023-03-04T14:37:57.353Z,9.52
2023-03-04T14:40:00.298Z,9.53
2023-03-04T14:42:08.852Z,9.53
2023-03-04T14:44:19.189Z,9.52
2023-03-04T14:46:22.193Z,9.51
2023-03-04T14:48:27.876Z,9.45
2023-03-04T14:50:37.352Z,9.39
2023-03-04T14:52:41.790Z,9.45
2023-03-04T14:55:00.846Z,9.50
2023-03-04T14:57:21.487Z,9.48
2023-03-04T14:59:31.054Z,9.51
2023-03-04T15:01:34.332Z,9.51
2023-03-04T15:03:36.301Z,9.53
2023-03-04T15:05:37.968Z,9.59
2023-03-04T15:07:41.721Z,9.51
2023-03-04T15:09:50.756Z,9.46
2023-03-04T15:11:57.493Z,9.48
2023-03-04T15:14:00.070Z,9.49
2023-03-04T15:16:01.930Z,9.57
2023-03-04T15:18:04.840Z,9.63
2023-03-04T15:20:21.847Z,9.66
2023-03-04T15:22:23.580Z,9.67
2023-03-04T15:24:25.309Z,9.63
2023-03-04T15:26:28.439Z,9.72
2023-03-04T15:28:33.972Z,9.76
2023-03-04T15:30:36.092Z,9.70
2023-03-04T15:32:37.745Z,9.75
2023-03-04T15:34:39.468Z,9.77
2023-03-04T15:36:42.831Z,9.79
2023-03-04T15:38:47.073Z,9.75
2023-03-04T15:40:48.714Z,9.78
2023-03-04T15:42:51.923Z,9.77
2023-03-04T15:44:53.532Z,9.71
2023-03-04T15:46:55.081Z,9.68
2023-03-04T15:48:56.692Z,9.68
2023-03-04T15:51:00.878Z,9.62
2023-03-04T15:53:04.617Z,9.62
2023-03-04T15:55:07.698Z,9.60
2023-03-04T15:57:18.589Z,9.53
2023-03-04T15:59:21.559Z,9.58
2023-03-04T16:01:26.167Z,9.59
2023-03-04T16:03:28.891Z,9.49
2023-03-04T16:05:31.267Z,9.48
2023-03-04T16:07:33.993Z,9.41
2023-03-04T16:09:35.609Z,9.46
2023-03-04T16:11:40.187Z,9.45
2023-03-04T16:13:42.047Z,9.49
2023-03-04T16:15:45.450Z,9.40
2023-03-04T16:17:47.389Z,9.41
2023-03-04T16:19:48.986Z,9.44
2023-03-04T16:21:50.561Z,9.36
2023-03-04T16:23:53.133Z,9.34
2023-03-04T16:25:56.410Z,9.34
2023-03-04T16:27:58.385Z,9.36
2023-03-04T16:29:59.927Z,9.38
2023-03-04T16:32:02.945Z,9.40
2023-03-04T16:34:04.531Z,9.43
2023-03-04T16:36:14.378Z,9.43
2023-03-04T16:38:23.087Z,9.46
2023-03-04T16:40:27.112Z,9.41
2023-03-04T16:42:28.634Z,9.36
2023-03-04T16:44:30.171Z,9.35
2023-03-04T16:46:34.653Z,9.35
2023-03-04T16:48:37.910Z,9.34
2023-03-04T16:50:40.042Z,9.37
2023-03-04T16:52:44.558Z,9.24
2023-03-04T16:54:46.756Z,9.30
2023-03-04T16:56:48.354Z,9.29
2023-03-04T16:58:50.412Z,9.32
2023-03-04T17:00:51.939Z,9.35
2023-03-04T17:02:55.847Z,9.36
2023-03-04T17:04:58.965Z,9.36
2023-03-04T17:07:00.537Z,9.36
2023-03-04T17:09:02.132Z,9.39
2023-03-04T17:11:03.787Z,9.38
2023-03-04T17:13:05.816Z,9.37
2023-03-04T17:15:08.380Z,9.41
2023-03-04T17:17:10.288Z,9.43
2023-03-04T17:19:11.838Z,9.45
2023-03-04T17:21:18.407Z,9.47
2023-03-04T17:23:20.072Z,9.43
2023-03-04T17:25:21.742Z,9.42
2023-03-04T17:27:23.750Z,9.41
2023-03-04T17:29:26.002Z,9.38
2023-03-04T17:31:27.654Z,9.37
2023-03-04T17:33:31.287Z,9.36
2023-03-04T17:35:32.814Z,9.35
2023-03-04T17:37:36.615Z,9.33
2023-03-04T17:39:38.340Z,9.30
2023-03-04T17:41:39.999Z,9.31
2023-03-04T17:43:42.972Z,9.30
2023-03-04T17:45:44.581Z,9.25
2023-03-04T17:47:51.825Z,9.22
2023-03-04T17:49:53.415Z,9.17
2023-03-04T17:51:55.159Z,9.19
2023-03-04T17:53:58.228Z,9.16
2023-03-04T17:56:01.764Z,9.12
2023-03-04T17:58:03.382Z,9.13
2023-03-04T18:00:06.833Z,9.12
2023-03-04T18:02:13.578Z,9.11
2023-03-04T18:04:15.703Z,9.13
2023-03-04T18:06:17.446Z,9.13
2023-03-04T18:08:19.168Z,9.13
2023-03-04T18:10:22.104Z,9.08
2023-03-04T18:12:23.630Z,9.05
2023-03-04T18:14:25.347Z,9.13
2023-03-04T18:16:27.218Z,9.11
2023-03-04T18:18:28.836Z,9.07
2023-03-04T18:20:30.444Z,9.06
2023-03-04T18:22:32.067Z,9.02
2023-03-04T18:24:33.652Z,9.01
2023-03-04T18:26:36.703Z,9.02
2023-03-04T18:28:38.572Z,9.00
2023-03-04T18:30:40.272Z,9.03
2023-03-04T18:32:51.337Z,9.04
2023-03-04T18:34:53.667Z,9.03
2023-03-04T18:36:55.379Z,9.03
2023-03-04T18:38:57.056Z,9.00
2023-03-04T18:40:59.363Z,8.97
2023-03-04T18:43:02.247Z,9.02
2023-03-04T18:45:04.669Z,9.01
2023-03-04T18:47:06.859Z,9.04
2023-03-04T18:49:09.136Z,9.01
2023-03-04T18:51:10.688Z,8.97
2023-03-04T18:53:12.203Z,8.94
2023-03-04T18:55:14.193Z,8.97
2023-03-04T18:57:15.749Z,8.94
2023-03-04T18:59:22.001Z,8.94
2023-03-04T19:01:24.932Z,8.95
2023-03-04T19:03:26.597Z,8.95
2023-03-04T19:05:31.799Z,8.97
2023-03-04T19:07:33.520Z,8.95
2023-03-04T19:09:35.379Z,8.94
2023-03-04T19:11:37.364Z,8.95
2023-03-04T19:13:38.900Z,8.90
2023-03-04T19:15:41.786Z,8.95
2023-03-04T19:17:44.232Z,8.95
2023-03-04T19:19:45.808Z,8.97
2023-03-04T19:21:47.482Z,8.99
2023-03-04T19:23:51.923Z,8.94
2023-03-04T19:25:53.512Z,8.97
2023-03-04T19:27:55.107Z,9.00
2023-03-04T19:29:56.774Z,9.04
2023-03-04T19:31:59.823Z,9.04
2023-03-04T19:34:01.376Z,8.99
2023-03-04T19:36:04.428Z,8.94
2023-03-04T19:38:06.020Z,8.89
2023-03-04T19:40:08.760Z,8.92
2023-03-04T19:42:10.552Z,8.92
2023-03-04T19:44:12.130Z,8.95
2023-03-04T19:46:14.369Z,8.92
2023-03-04T19:48:17.444Z,8.91
2023-03-04T19:50:19.192Z,8.90
2023-03-04T19:52:20.915Z,8.87
2023-03-04T19:54:22.685Z,8.91
2023-03-04T19:56:24.506Z,8.89
2023-03-04T19:58:26.079Z,8.92
2023-03-04T20:00:27.819Z,8.90
2023-03-04T20:02:29.506Z,8.88
2023-03-04T20:04:32.617Z,8.83
2023-03-04T20:06:35.509Z,8.88
2023-03-04T20:08:38.448Z,8.90
2023-03-04T20:10:40.154Z,8.84
2023-03-04T20:12:41.775Z,8.88
2023-03-04T20:14:43.282Z,8.89
2023-03-04T20:16:44.896Z,8.89
2023-03-04T20:18:46.662Z,8.93
2023-03-04T20:20:49.547Z,8.98
2023-03-04T20:22:51.096Z,8.98
2023-03-04T20:24:52.778Z,8.95
2023-03-04T20:26:54.377Z,8.95
2023-03-04T20:28:55.899Z,8.96
2023-03-04T20:31:10.621Z,8.94
2023-03-04T20:33:12.187Z,8.95
2023-03-04T20:35:13.740Z,8.92
2023-03-04T20:37:16.936Z,8.92
2023-03-04T20:39:28.725Z,8.94
2023-03-04T20:41:31.983Z,8.97
2023-03-04T20:43:33.600Z,9.01
2023-03-04T20:45:35.886Z,9.01
2023-03-04T20:47:39.533Z,9.02
2023-03-04T20:49:41.337Z,9.04
2023-03-04T20:51:43.242Z,9.07
2023-03-04T20:53:46.463Z,9.09
2023-03-04T20:55:48.065Z,9.06
2023-03-04T20:57:49.646Z,9.06
2023-03-04T20:59:51.288Z,9.11
2023-03-04T21:01:53.638Z,9.10
2023-03-04T21:03:55.534Z,9.10
2023-03-04T21:06:02.706Z,9.14
2023-03-04T21:08:04.723Z,9.13
2023-03-04T21:10:08.765Z,9.13
2023-03-04T21:12:10.685Z,9.11
2023-03-04T21:14:14.056Z,9.09
2023-03-04T21:16:17.138Z,9.08
2023-03-04T21:18:19.134Z,9.08
2023-03-04T21:20:20.991Z,9.07
2023-03-04T21:22:22.674Z,9.08
2023-03-04T21:24:26.009Z,9.08
2023-03-04T21:26:29.177Z,9.05
2023-03-04T21:28:30.735Z,9.04
2023-03-04T21:30:32.261Z,9.03
2023-03-04T21:32:34.132Z,9.02
2023-03-04T21:34:39.567Z,9.05
2023-03-04T21:36:41.502Z,9.09
2023-03-04T21:38:44.527Z,9.07
2023-03-04T21:40:46.134Z,9.04
2023-03-04T21:42:49.045Z,9.02
2023-03-04T21:44:51.835Z,9.00
2023-03-04T21:46:53.979Z,9.03
2023-03-04T21:48:55.652Z,8.99
2023-03-04T21:51:01.689Z,9.01
2023-03-04T21:53:03.306Z,8.99
2023-03-04T21:55:05.448Z,8.97
2023-03-04T21:57:07.090Z,8.97
2023-03-04T21:59:11.887Z,9.00
2023-03-04T22:01:14.642Z,8.97
2023-03-04T22:03:16.453Z,8.97
2023-03-04T22:05:19.175Z,8.95
2023-03-04T22:07:20.781Z,8.94
2023-03-04T22:09:22.376Z,8.97
2023-03-04T22:11:24.304Z,8.93
2023-03-04T22:13:25.846Z,8.93
2023-03-04T22:15:28.937Z,8.95
2023-03-04T22:17:30.549Z,8.95
2023-03-04T22:19:32.767Z,8.97
2023-03-04T22:21:34.380Z,8.95
2023-03-04T22:23:36.212Z,8.96
2023-03-04T22:25:39.737Z,8.98
2023-03-04T22:27:41.373Z,8.99
2023-03-04T22:29:46.003Z,9.00
2023-03-04T22:31:48.983Z,8.97
2023-03-04T22:33:50.672Z,8.99
2023-03-04T22:35:52.751Z,8.99
2023-03-04T22:37:54.590Z,8.95
2023-03-04T22:39:57.136Z,8.87
2023-03-04T22:41:58.676Z,8.84
2023-03-04T22:44:00.338Z,8.84
2023-03-04T22:46:11.966Z,8.84
2023-03-04T22:48:14.945Z,8.83
2023-03-04T22:50:17.427Z,8.89
2023-03-04T22:52:19.124Z,8.91
2023-03-04T22:54:20.662Z,8.88
2023-03-04T22:56:22.427Z,8.85
2023-03-04T22:58:24.120Z,8.85
2023-03-04T23:00:27.842Z,8.91
2023-03-04T23:02:29.542Z,8.95
2023-03-04T23:04:32.742Z,8.96
2023-03-04T23:06:34.832Z,8.95
2023-03-04T23:08:38.432Z,8.94
2023-03-04T23:10:42.180Z,8.90
2023-03-04T23:12:43.901Z,8.87
2023-03-04T23:14:45.460Z,8.85
2023-03-04T23:16:47.145Z,8.83
2023-03-04T23:18:49.225Z,8.85
2023-03-04T23:20:52.119Z,8.84
2023-03-04T23:22:53.702Z,8.84
2023-03-04T23:24:55.267Z,8.87
2023-03-04T23:26:57.050Z,8.78
2023-03-04T23:29:00.625Z,8.72
2023-03-04T23:31:04.259Z,8.77
2023-03-04T23:33:07.079Z,8.82
2023-03-04T23:35:09.296Z,8.82
2023-03-04T23:37:12.269Z,8.83
2023-03-04T23:39:13.838Z,8.90
2023-03-04T23:41:17.854Z,8.92
2023-03-04T23:43:19.381Z,8.94
2023-03-04T23:45:20.951Z,8.91
2023-03-04T23:47:22.564Z,8.91
2023-03-04T23:49:24.322Z,8.89
2023-03-04T23:51:28.255Z,8.90
2023-03-04T23:53:31.211Z,8.92
2023-03-04T23:55:32.694Z,8.84
2023-03-04T23:57:34.220Z,8.88
2023-03-04T23:59:37.651Z,8.90
